createdAt,value
2023-02-21T00:00:15.660Z,4.87
2023-02-21T00:03:24.166Z,4.87
2023-02-21T00:06:12.465Z,4.86
2023-02-21T00:09:00.842Z,4.87
2023-02-21T00:11:49.179Z,4.88
2023-02-21T00:14:36.494Z,4.90
2023-02-21T00:17:24.758Z,4.94
2023-02-21T00:20:12.374Z,4.97
2023-02-21T00:23:00.430Z,4.99
2023-02-21T00:25:48.052Z,5.05
2023-02-21T00:28:37.044Z,5.11
2023-02-21T00:31:26.127Z,5.17
2023-02-21T00:34:14.111Z,5.19
2023-02-21T00:37:02.478Z,5.24
2023-02-21T00:39:51.330Z,5.29
2023-02-21T00:42:39.654Z,5.31
2023-02-21T00:45:29.437Z,5.34
2023-02-21T00:48:16.898Z,5.35
2023-02-21T00:51:05.212Z,5.38
2023-02-21T00:53:54.160Z,5.43
2023-02-21T00:56:42.970Z,5.43
2023-02-21T00:59:31.698Z,5.45
2023-02-21T01:02:19.932Z,5.48
2023-02-21T01:05:08.722Z,5.50
2023-02-21T01:07:58.716Z,5.53
2023-02-21T01:10:48.339Z,5.53
2023-02-21T01:13:38.026Z,5.54
2023-02-21T01:16:26.941Z,5.57
2023-02-21T01:19:16.527Z,5.59
2023-02-21T01:22:05.340Z,5.57
2023-02-21T01:24:54.595Z,5.63
2023-02-21T01:27:43.015Z,5.64
2023-02-21T01:30:32.391Z,5.65
2023-02-21T01:33:22.694Z,5.67
2023-02-21T01:36:12.442Z,5.69
2023-02-21T01:39:02.322Z,5.71
2023-02-21T01:41:51.526Z,5.74
2023-02-21T01:44:54.423Z,5.75
2023-02-21T01:47:45.788Z,5.75
2023-02-21T01:50:50.560Z,5.75
2023-02-21T01:53:45.289Z,5.76
2023-02-21T01:56:35.355Z,5.76
2023-02-21T01:59:25.614Z,5.77
2023-02-21T02:02:26.534Z,5.79
2023-02-21T02:05:16.668Z,5.78
2023-02-21T02:08:06.358Z,5.80
2023-02-21T02:10:54.798Z,5.81
2023-02-21T02:13:31.093Z,5.81
2023-02-21T02:16:16.696Z,5.82
2023-02-21T02:19:01.736Z,5.86
2023-02-21T02:21:57.608Z,5.85
2023-02-21T02:24:59.707Z,5.84
2023-02-21T02:28:04.754Z,5.83
2023-02-21T02:31:01.558Z,5.81
2023-02-21T02:33:59.992Z,5.82
2023-02-21T02:36:43.683Z,5.86
2023-02-21T02:39:44.347Z,5.89
2023-02-21T02:42:36.515Z,5.92
2023-02-21T02:45:16.928Z,5.92
2023-02-21T02:47:53.492Z,5.95
2023-02-21T02:50:27.930Z,5.97
2023-02-21T02:53:04.669Z,5.96
2023-02-21T02:55:44.708Z,5.96
2023-02-21T02:58:16.556Z,5.96
2023-02-21T03:01:12.652Z,5.97
2023-02-21T03:04:04.387Z,5.99
2023-02-21T03:06:38.294Z,6.00
2023-02-21T03:09:39.834Z,6.02
2023-02-21T03:12:15.305Z,6.04
2023-02-21T03:14:58.482Z,6.02
2023-02-21T03:17:33.324Z,6.01
2023-02-21T03:20:06.745Z,6.04
2023-02-21T03:22:38.162Z,6.03
2023-02-21T03:25:10.167Z,6.02
2023-02-21T03:27:42.830Z,6.01
2023-02-21T03:30:22.764Z,6.00
2023-02-21T03:32:55.692Z,5.99
2023-02-21T03:35:31.397Z,5.94
2023-02-21T03:38:02.257Z,5.95
2023-02-21T03:40:35.600Z,5.95
2023-02-21T03:43:07.699Z,5.96
2023-02-21T03:45:51.581Z,5.96
2023-02-21T03:48:31.414Z,5.95
2023-02-21T03:51:06.460Z,5.92
2023-02-21T03:53:39.728Z,5.89
2023-02-21T03:56:10.247Z,5.90
2023-02-21T03:58:53.309Z,5.88
2023-02-21T04:01:22.626Z,5.86
2023-02-21T04:03:52.840Z,5.85
2023-02-21T04:06:23.829Z,5.84
2023-02-21T04:08:53.967Z,5.79
2023-02-21T04:11:25.247Z,5.73
2023-02-21T04:13:56.958Z,5.67
2023-02-21T04:16:27.821Z,5.63
2023-02-21T04:19:00.200Z,5.60
2023-02-21T04:21:31.527Z,5.57
2023-02-21T04:24:03.974Z,5.59
2023-02-21T04:26:35.526Z,5.59
2023-02-21T04:29:06.530Z,5.60
2023-02-21T04:31:36.704Z,5.62
2023-02-21T04:34:12.629Z,5.59
2023-02-21T04:36:45.869Z,5.60
2023-02-21T04:39:15.663Z,5.55
2023-02-21T04:41:44.646Z,5.54
2023-02-21T04:44:15.107Z,5.52
2023-02-21T04:46:44.878Z,5.50
2023-02-21T04:49:14.788Z,5.51
2023-02-21T04:51:44.444Z,5.51
2023-02-21T04:54:14.861Z,5.51
2023-02-21T04:56:43.906Z,5.50
2023-02-21T04:59:12.809Z,5.46
2023-02-21T05:01:41.916Z,5.45
2023-02-21T05:04:12.593Z,5.39
2023-02-21T05:06:42.135Z,5.38
2023-02-21T05:09:11.653Z,5.34
2023-02-21T05:11:42.490Z,5.30
2023-02-21T05:14:12.081Z,5.30
2023-02-21T05:16:41.521Z,5.27
2023-02-21T05:19:11.898Z,5.23
2023-02-21T05:21:41.376Z,5.18
2023-02-21T05:24:11.260Z,5.16
2023-02-21T05:26:41.266Z,5.11
2023-02-21T05:29:10.510Z,5.03
2023-02-21T05:31:39.855Z,4.94
2023-02-21T05:34:09.277Z,4.87
2023-02-21T05:36:40.100Z,4.79
2023-02-21T05:39:10.902Z,4.71
2023-02-21T05:41:40.523Z,4.65
2023-02-21T05:44:09.642Z,4.65
2023-02-21T05:46:38.412Z,4.61
2023-02-21T05:49:07.811Z,4.58
2023-02-21T05:51:42.096Z,4.54
2023-02-21T05:54:19.142Z,4.50
2023-02-21T05:56:51.132Z,4.50
2023-02-21T05:59:21.704Z,4.52
2023-02-21T06:01:51.209Z,4.54
2023-02-21T06:04:20.609Z,4.58
2023-02-21T06:06:50.114Z,4.61
2023-02-21T06:09:19.834Z,4.70
2023-02-21T06:11:48.922Z,4.78
2023-02-21T06:14:21.302Z,4.88
2023-02-21T06:16:50.796Z,4.97
2023-02-21T06:19:20.196Z,5.01
2023-02-21T06:21:49.189Z,5.05
2023-02-21T06:24:17.976Z,5.09
2023-02-21T06:26:47.282Z,5.14
2023-02-21T06:29:16.059Z,5.25
2023-02-21T06:31:44.992Z,5.27
2023-02-21T06:34:14.358Z,5.33
2023-02-21T06:36:44.182Z,5.44
2023-02-21T06:39:13.265Z,5.69
2023-02-21T06:41:42.058Z,5.97
2023-02-21T06:44:12.067Z,6.24
2023-02-21T06:46:40.861Z,6.46
2023-02-21T06:49:10.259Z,6.73
2023-02-21T06:51:41.420Z,6.98
2023-02-21T06:54:10.293Z,7.25
2023-02-21T06:56:39.734Z,7.48
2023-02-21T06:59:09.239Z,7.84
2023-02-21T07:01:38.308Z,7.90
2023-02-21T07:04:07.187Z,8.30
2023-02-21T07:06:36.793Z,8.64
2023-02-21T07:09:07.022Z,9.06
2023-02-21T07:11:36.105Z,9.24
2023-02-21T07:14:04.896Z,9.39
2023-02-21T07:16:33.888Z,9.36
2023-02-21T07:19:02.367Z,9.48
2023-02-21T07:21:31.357Z,9.42
2023-02-21T07:24:00.253Z,8.87
2023-02-21T07:26:28.948Z,8.70
2023-02-21T07:28:57.956Z,8.39
2023-02-21T07:31:27.398Z,8.26
2023-02-21T07:33:56.324Z,7.96
2023-02-21T07:36:25.829Z,7.73
2023-02-21T07:38:54.428Z,7.84
2023-02-21T07:41:23.612Z,7.70
2023-02-21T07:43:52.750Z,7.81
2023-02-21T07:46:27.584Z,7.86
2023-02-21T07:48:57.352Z,8.02
2023-02-21T07:51:32.190Z,8.17
2023-02-21T07:54:04.451Z,8.27
2023-02-21T07:56:33.334Z,8.31
2023-02-21T07:59:02.333Z,8.34
2023-02-21T08:01:31.035Z,8.38
2023-02-21T08:03:59.709Z,8.49
2023-02-21T08:06:28.522Z,8.44
2023-02-21T08:08:57.168Z,8.52
2023-02-21T08:11:28.311Z,8.53
2023-02-21T08:13:56.999Z,8.70
2023-02-21T08:16:26.366Z,8.70
2023-02-21T08:18:55.296Z,8.69
2023-02-21T08:21:24.896Z,8.71
2023-02-21T08:23:55.538Z,8.78
2023-02-21T08:26:24.110Z,8.88
2023-02-21T08:28:53.620Z,8.94
2023-02-21T08:31:22.931Z,8.91
2023-02-21T08:33:51.959Z,9.00
2023-02-21T08:36:20.612Z,9.07
2023-02-21T08:38:49.275Z,9.24
2023-02-21T08:41:18.066Z,9.13
2023-02-21T08:43:47.264Z,9.21
2023-02-21T08:46:15.994Z,9.26
2023-02-21T08:48:44.634Z,9.23
2023-02-21T08:51:13.960Z,9.25
2023-02-21T08:53:44.050Z,9.24
2023-02-21T08:56:13.564Z,9.36
2023-02-21T08:58:42.141Z,9.48
2023-02-21T09:01:11.094Z,9.56
2023-02-21T09:03:40.744Z,9.66
2023-02-21T09:06:10.143Z,9.70
2023-02-21T09:08:39.444Z,9.78
2023-02-21T09:11:08.650Z,9.87
2023-02-21T09:13:37.229Z,9.94
2023-02-21T09:16:06.670Z,9.96
2023-02-21T09:18:35.329Z,10.04
2023-02-21T09:21:04.417Z,10.01
2023-02-21T09:23:33.709Z,10.05
2023-02-21T09:26:02.299Z,10.21
2023-02-21T09:28:31.794Z,10.27
2023-02-21T09:31:00.591Z,10.29
2023-02-21T09:33:31.318Z,10.20
2023-02-21T09:36:00.121Z,10.18
2023-02-21T09:38:28.895Z,10.33
2023-02-21T09:41:04.192Z,10.43
2023-02-21T09:43:38.572Z,10.55
2023-02-21T09:46:19.427Z,10.63
2023-02-21T09:48:50.030Z,10.76
2023-02-21T09:51:18.944Z,10.79
2023-02-21T09:53:49.525Z,10.80
2023-02-21T09:56:37.021Z,10.86
2023-02-21T09:59:11.978Z,10.97
2023-02-21T10:01:50.240Z,11.00
2023-02-21T10:04:53.044Z,11.05
2023-02-21T10:08:13.535Z,10.91
2023-02-21T10:10:48.192Z,11.06
2023-02-21T10:13:45.817Z,10.92
2023-02-21T10:16:21.433Z,11.11
2023-02-21T10:19:15.238Z,11.19
2023-02-21T10:21:49.924Z,11.33
2023-02-21T10:24:24.321Z,11.39
2023-02-21T10:27:06.612Z,11.40
2023-02-21T10:29:46.333Z,11.37
2023-02-21T10:32:15.343Z,11.31
2023-02-21T10:34:47.505Z,11.18
2023-02-21T10:37:51.402Z,10.99
2023-02-21T10:40:28.793Z,10.95
2023-02-21T10:43:05.976Z,10.77
2023-02-21T10:45:40.818Z,10.68
2023-02-21T10:48:11.641Z,10.54
2023-02-21T10:50:54.865Z,10.47
2023-02-21T10:53:32.882Z,10.33
2023-02-21T10:56:19.078Z,10.31
2023-02-21T10:58:58.300Z,10.22
2023-02-21T11:01:26.951Z,10.13
2023-02-21T11:03:59.565Z,10.10
2023-02-21T11:06:31.017Z,10.11
2023-02-21T11:09:00.416Z,10.02
2023-02-21T11:11:40.996Z,10.02
2023-02-21T11:14:21.454Z,9.97
2023-02-21T11:17:15.227Z,9.94
2023-02-21T11:19:53.020Z,9.91
2023-02-21T11:22:37.264Z,9.92
2023-02-21T11:25:28.688Z,9.88
2023-02-21T11:28:07.646Z,9.86
2023-02-21T11:30:39.047Z,9.85
2023-02-21T11:33:09.373Z,9.83
2023-02-21T11:35:48.930Z,9.82
2023-02-21T11:38:40.995Z,9.85
2023-02-21T11:41:31.466Z,9.82
2023-02-21T11:44:00.347Z,9.87
2023-02-21T11:46:31.597Z,9.93
2023-02-21T11:49:19.221Z,9.96
2023-02-21T11:51:54.265Z,10.04
2023-02-21T11:54:26.938Z,10.10
2023-02-21T11:57:07.293Z,10.19
2023-02-21T11:59:54.411Z,10.27
2023-02-21T12:02:29.669Z,10.34
2023-02-21T12:05:15.344Z,10.34
2023-02-21T12:07:46.073Z,10.30
2023-02-21T12:10:24.075Z,10.34
2023-02-21T12:13:13.443Z,10.29
2023-02-21T12:15:44.698Z,10.31
2023-02-21T12:18:16.548Z,10.34
2023-02-21T12:21:00.493Z,10.31
2023-02-21T12:23:45.269Z,10.29
2023-02-21T12:26:35.647Z,10.29
2023-02-21T12:29:44.884Z,10.34
2023-02-21T12:32:51.260Z,10.37
2023-02-21T12:35:49.559Z,10.36
2023-02-21T12:38:45.335Z,10.35
2023-02-21T12:41:32.064Z,10.33
2023-02-21T12:44:51.642Z,10.32
2023-02-21T12:47:44.532Z,10.30
2023-02-21T12:50:18.403Z,10.27
2023-02-21T12:53:05.317Z,10.27
2023-02-21T12:55:40.412Z,10.28
2023-02-21T12:58:36.790Z,10.31
2023-02-21T13:01:27.611Z,10.32
2023-02-21T13:04:18.093Z,10.33
2023-02-21T13:06:55.581Z,10.35
2023-02-21T13:09:35.322Z,10.34
2023-02-21T13:12:05.958Z,10.32
2023-02-21T13:14:44.157Z,10.37
2023-02-21T13:17:16.899Z,10.42
2023-02-21T13:19:56.067Z,10.47
2023-02-21T13:23:21.080Z,10.49
2023-02-21T13:26:16.803Z,10.48
2023-02-21T13:28:46.836Z,10.51
2023-02-21T13:31:38.423Z,10.52
2023-02-21T13:34:18.283Z,10.53
2023-02-21T13:36:48.209Z,10.54
2023-02-21T13:39:36.755Z,10.55
2023-02-21T13:42:18.295Z,10.57
2023-02-21T13:44:51.942Z,10.59
2023-02-21T13:47:23.180Z,10.64
2023-02-21T13:49:57.342Z,10.69
2023-02-21T13:52:52.405Z,10.80
2023-02-21T13:55:23.972Z,10.92
2023-02-21T13:58:12.511Z,11.01
2023-02-21T14:00:41.683Z,11.09
2023-02-21T14:03:10.284Z,11.11
2023-02-21T14:05:52.724Z,11.15
2023-02-21T14:08:29.894Z,11.27
2023-02-21T14:10:58.465Z,11.39
2023-02-21T14:13:41.387Z,11.49
2023-02-21T14:16:13.002Z,11.67
2023-02-21T14:18:47.664Z,11.87
2023-02-21T14:21:22.894Z,12.07
2023-02-21T14:24:03.170Z,12.22
2023-02-21T14:26:51.852Z,12.41
2023-02-21T14:29:36.519Z,12.69
2023-02-21T14:32:11.073Z,13.44
2023-02-21T14:34:57.495Z,14.40
2023-02-21T14:37:28.644Z,14.48
2023-02-21T14:40:19.765Z,14.70
2023-02-21T14:43:04.858Z,15.20
2023-02-21T14:45:36.422Z,15.58
2023-02-21T14:48:16.018Z,15.99
2023-02-21T14:51:03.354Z,16.15
2023-02-21T14:53:57.624Z,16.66
2023-02-21T14:56:41.256Z,17.24
2023-02-21T14:59:09.841Z,17.72
2023-02-21T15:01:49.486Z,17.77
2023-02-21T15:04:27.235Z,18.10
2023-02-21T15:07:12.153Z,18.25
2023-02-21T15:09:42.884Z,18.18
2023-02-21T15:12:17.818Z,18.08
2023-02-21T15:14:53.768Z,17.99
2023-02-21T15:17:25.099Z,18.02
2023-02-21T15:20:24.624Z,17.51
2023-02-21T15:23:29.964Z,16.36
2023-02-21T15:26:02.799Z,15.47
2023-02-21T15:28:33.687Z,14.69
2023-02-21T15:31:08.754Z,13.71
2023-02-21T15:33:40.193Z,13.36
2023-02-21T15:36:25.500Z,13.12
2023-02-21T15:38:58.839Z,12.80
2023-02-21T15:41:37.400Z,12.52
2023-02-21T15:44:15.264Z,12.25
2023-02-21T15:46:52.338Z,11.81
2023-02-21T15:49:47.957Z,11.62
2023-02-21T15:52:27.290Z,11.40
2023-02-21T15:55:21.271Z,11.25
2023-02-21T15:58:00.812Z,11.09
2023-02-21T16:00:35.643Z,10.97
2023-02-21T16:03:37.197Z,10.85
2023-02-21T16:06:25.342Z,10.81
2023-02-21T16:09:19.555Z,10.72
2023-02-21T16:11:53.838Z,10.69
2023-02-21T16:14:44.442Z,10.65
2023-02-21T16:17:22.138Z,10.60
2023-02-21T16:19:54.792Z,10.54
2023-02-21T16:22:59.551Z,10.44
2023-02-21T16:25:27.305Z,10.38
2023-02-21T16:28:00.443Z,10.33
2023-02-21T16:30:32.895Z,10.29
2023-02-21T16:33:06.146Z,10.25
2023-02-21T16:35:35.161Z,10.22
2023-02-21T16:38:03.746Z,10.21
2023-02-21T16:40:34.767Z,10.19
2023-02-21T16:43:05.112Z,10.17
2023-02-21T16:45:34.010Z,10.16
2023-02-21T16:48:05.530Z,10.13
2023-02-21T16:50:39.866Z,10.11
2023-02-21T16:53:15.135Z,10.10
2023-02-21T16:55:45.343Z,10.08
2023-02-21T16:58:34.391Z,10.09
2023-02-21T17:01:08.303Z,10.09
2023-02-21T17:03:37.296Z,10.09
2023-02-21T17:06:07.067Z,10.09
2023-02-21T17:08:35.695Z,10.08
2023-02-21T17:11:04.803Z,10.08
2023-02-21T17:13:34.083Z,10.08
2023-02-21T17:16:02.728Z,10.09
2023-02-21T17:18:31.868Z,10.10
2023-02-21T17:21:01.684Z,10.09
2023-02-21T17:23:30.464Z,10.09
2023-02-21T17:25:59.662Z,10.07
2023-02-21T17:28:28.469Z,10.08
2023-02-21T17:30:59.712Z,10.06
2023-02-21T17:33:28.489Z,10.00
2023-02-21T17:35:57.472Z,10.00
2023-02-21T17:38:26.366Z,9.98
2023-02-21T17:40:55.045Z,9.96
2023-02-21T17:43:23.756Z,9.96
2023-02-21T17:45:52.535Z,9.94
2023-02-21T17:48:21.207Z,9.91
2023-02-21T17:50:49.688Z,9.89
2023-02-21T17:53:18.376Z,9.88
2023-02-21T17:55:46.957Z,9.87
2023-02-21T17:58:15.543Z,9.87
2023-02-21T18:00:45.615Z,9.84
2023-02-21T18:03:13.940Z,9.81
2023-02-21T18:05:42.525Z,9.81
2023-02-21T18:08:11.165Z,9.81
2023-02-21T18:10:42.659Z,9.80
2023-02-21T18:13:11.137Z,9.79
2023-02-21T18:15:39.831Z,9.76
2023-02-21T18:18:08.438Z,9.70
2023-02-21T18:20:37.398Z,9.72
2023-02-21T18:23:08.750Z,9.68
2023-02-21T18:25:37.843Z,9.64
2023-02-21T18:28:06.427Z,9.57
2023-02-21T18:30:35.378Z,9.53
2023-02-21T18:33:04.721Z,9.41
2023-02-21T18:35:33.300Z,9.34
2023-02-21T18:38:01.994Z,9.25
2023-02-21T18:40:44.818Z,9.15
2023-02-21T18:43:20.974Z,9.10
2023-02-21T18:45:52.007Z,9.04
2023-02-21T18:48:23.402Z,9.03
2023-02-21T18:50:52.348Z,9.02
2023-02-21T18:53:21.954Z,9.00
2023-02-21T18:55:50.848Z,8.98
2023-02-21T18:58:19.432Z,8.93
2023-02-21T19:00:49.819Z,8.88
2023-02-21T19:03:18.542Z,8.89
2023-02-21T19:05:48.457Z,8.85
2023-02-21T19:08:18.365Z,8.83
2023-02-21T19:10:46.745Z,8.81
2023-02-21T19:13:17.682Z,8.81
2023-02-21T19:15:46.586Z,8.78
2023-02-21T19:18:15.060Z,8.73
2023-02-21T19:20:44.155Z,8.66
2023-02-21T19:23:13.454Z,8.65
2023-02-21T19:25:41.927Z,8.69
2023-02-21T19:28:10.721Z,8.73
2023-02-21T19:30:39.204Z,8.71
2023-02-21T19:33:10.039Z,8.67
2023-02-21T19:35:39.950Z,8.68
2023-02-21T19:38:09.677Z,8.70
2023-02-21T19:40:38.449Z,8.80
2023-02-21T19:43:07.237Z,8.82
2023-02-21T19:45:35.832Z,8.82
2023-02-21T19:48:04.915Z,8.83
2023-02-21T19:50:35.160Z,8.81
2023-02-21T19:53:04.230Z,8.78
2023-02-21T19:55:33.841Z,8.76
2023-02-21T19:58:07.143Z,8.75
2023-02-21T20:00:38.932Z,8.71
2023-02-21T20:03:07.470Z,8.70
2023-02-21T20:05:36.369Z,8.64
2023-02-21T20:08:05.485Z,8.55
2023-02-21T20:10:34.244Z,8.55
2023-02-21T20:13:06.513Z,8.53
2023-02-21T20:15:36.320Z,8.46
2023-02-21T20:18:05.232Z,8.38
2023-02-21T20:20:33.827Z,8.31
2023-02-21T20:23:03.813Z,8.25
2023-02-21T20:25:32.709Z,8.24
2023-02-21T20:28:01.908Z,8.23
2023-02-21T20:30:30.691Z,8.29
2023-02-21T20:33:01.543Z,8.38
2023-02-21T20:35:30.216Z,8.36
2023-02-21T20:38:02.587Z,8.33
2023-02-21T20:40:35.477Z,8.31
2023-02-21T20:43:03.949Z,8.30
2023-02-21T20:45:33.557Z,8.26
2023-02-21T20:48:02.149Z,8.26
2023-02-21T20:50:30.929Z,8.34
2023-02-21T20:52:59.510Z,8.36
2023-02-21T20:55:28.003Z,8.41
2023-02-21T20:57:57.098Z,8.42
2023-02-21T21:00:30.673Z,8.38
2023-02-21T21:02:59.785Z,8.36
2023-02-21T21:05:28.587Z,8.38
2023-02-21T21:07:58.405Z,8.39
2023-02-21T21:10:27.378Z,8.40
2023-02-21T21:12:56.879Z,8.37
2023-02-21T21:15:26.282Z,8.40
2023-02-21T21:17:55.690Z,8.37
2023-02-21T21:20:27.187Z,8.32
2023-02-21T21:22:56.031Z,8.31
2023-02-21T21:25:24.708Z,8.29
2023-02-21T21:27:53.494Z,8.29
2023-02-21T21:30:23.890Z,8.36
2023-02-21T21:32:52.845Z,8.37
2023-02-21T21:35:22.353Z,8.37
2023-02-21T21:37:51.012Z,8.36
2023-02-21T21:40:24.388Z,8.35
2023-02-21T21:42:54.332Z,8.31
2023-02-21T21:45:25.556Z,8.27
2023-02-21T21:47:59.722Z,8.26
2023-02-21T21:50:28.470Z,8.25
2023-02-21T21:52:58.764Z,8.25
2023-02-21T21:55:30.315Z,8.25
2023-02-21T21:57:59.401Z,8.22
2023-02-21T22:00:30.806Z,8.19
2023-02-21T22:03:02.251Z,8.19
2023-02-21T22:05:32.667Z,8.19
2023-02-21T22:08:01.859Z,8.18
2023-02-21T22:10:30.542Z,8.19
2023-02-21T22:13:00.874Z,8.20
2023-02-21T22:15:30.575Z,8.19
2023-02-21T22:18:04.222Z,8.18
2023-02-21T22:20:32.961Z,8.18
2023-02-21T22:23:03.021Z,8.16
2023-02-21T22:25:37.605Z,8.15
2023-02-21T22:28:13.332Z,8.14
2023-02-21T22:30:42.137Z,8.12
2023-02-21T22:33:13.797Z,8.10
2023-02-21T22:35:42.792Z,8.10
2023-02-21T22:38:14.754Z,8.08
2023-02-21T22:40:44.471Z,8.09
2023-02-21T22:43:14.023Z,8.07
2023-02-21T22:45:50.350Z,8.07
2023-02-21T22:48:20.956Z,8.06
2023-02-21T22:50:50.261Z,8.06
2023-02-21T22:53:19.974Z,8.05
2023-02-21T22:55:52.533Z,8.03
2023-02-21T22:58:22.427Z,8.03
2023-02-21T23:00:52.890Z,8.00
2023-02-21T23:03:22.085Z,7.96
2023-02-21T23:05:52.413Z,7.91
2023-02-21T23:08:23.422Z,7.89
2023-02-21T23:10:52.049Z,7.88
2023-02-21T23:13:23.898Z,7.87
2023-02-21T23:15:56.127Z,7.86
2023-02-21T23:18:26.617Z,7.85
2023-02-21T23:20:57.491Z,7.80
2023-02-21T23:23:28.807Z,7.81
2023-02-21T23:26:00.033Z,7.80
2023-02-21T23:28:30.851Z,7.76
2023-02-21T23:30:59.948Z,7.74
2023-02-21T23:33:34.723Z,7.73
2023-02-21T23:36:05.064Z,7.72
2023-02-21T23:38:38.732Z,7.70
2023-02-21T23:41:08.647Z,7.68
2023-02-21T23:43:37.751Z,7.66
2023-02-21T23:46:08.154Z,7.62
2023-02-21T23:48:38.076Z,7.57
2023-02-21T23:51:09.627Z,7.54
2023-02-21T23:53:38.616Z,7.52
2023-02-21T23:56:13.301Z,7.52
2023-02-21T23:58:45.936Z,7.50
